createdAt,value
2023-04-21T00:00:57.565Z,9.80
2023-04-21T00:03:24.873Z,8.93
2023-04-21T00:05:52.352Z,9.25
2023-04-21T00:08:20.909Z,9.02
2023-04-21T00:10:47.748Z,8.90
2023-04-21T00:13:14.655Z,9.18
2023-04-21T00:15:41.593Z,9.63
2023-04-21T00:18:08.668Z,10.35
2023-04-21T00:20:36.262Z,9.95
2023-04-21T00:23:03.127Z,10.13
2023-04-21T00:25:31.465Z,10.50
2023-04-21T00:27:58.706Z,10.98
2023-04-21T00:30:25.698Z,11.20
2023-04-21T00:32:52.955Z,10.90
2023-04-21T00:35:19.908Z,10.18
2023-04-21T00:37:46.819Z,10.23
2023-04-21T00:40:13.883Z,11.60
2023-04-21T00:42:42.322Z,10.40
2023-04-21T00:45:09.576Z,10.75
2023-04-21T00:47:36.491Z,11.38
2023-04-21T00:50:04.277Z,10.38
2023-04-21T00:52:32.876Z,10.52
2023-04-21T00:55:00.140Z,10.65
2023-04-21T00:57:27.994Z,11.45
2023-04-21T00:59:56.167Z,10.32
2023-04-21T01:02:23.563Z,9.90
2023-04-21T01:04:50.618Z,10.43
2023-04-21T01:07:17.423Z,10.43
2023-04-21T01:09:44.202Z,10.30
2023-04-21T01:12:12.339Z,10.88
2023-04-21T01:14:40.388Z,10.15
2023-04-21T01:17:08.894Z,10.20
2023-04-21T01:19:38.418Z,10.43
2023-04-21T01:22:06.775Z,10.57
2023-04-21T01:24:37.872Z,10.20
2023-04-21T01:27:09.267Z,10.20
2023-04-21T01:29:36.081Z,10.05
2023-04-21T01:32:08.144Z,10.95
2023-04-21T01:34:35.377Z,10.68
2023-04-21T01:37:02.350Z,10.20
2023-04-21T01:39:30.519Z,9.82
2023-04-21T01:41:57.413Z,9.82
2023-04-21T01:44:25.194Z,9.20
2023-04-21T01:46:52.272Z,10.50
2023-04-21T01:49:19.276Z,9.57
2023-04-21T01:51:46.224Z,10.10
2023-04-21T01:54:13.064Z,9.85
2023-04-21T01:56:41.447Z,10.93
2023-04-21T01:59:08.261Z,9.48
2023-04-21T02:01:35.194Z,10.15
2023-04-21T02:04:02.975Z,10.57
2023-04-21T02:06:29.993Z,10.63
2023-04-21T02:08:56.818Z,10.35
2023-04-21T02:11:23.706Z,10.32
2023-04-21T02:13:52.154Z,10.25
2023-04-21T02:16:19.059Z,10.45
2023-04-21T02:18:45.974Z,9.90
2023-04-21T02:21:12.850Z,10.50
2023-04-21T02:23:39.732Z,10.35
2023-04-21T02:26:06.632Z,10.73
2023-04-21T02:28:33.550Z,10.70
2023-04-21T02:31:01.970Z,9.32
2023-04-21T02:33:29.680Z,9.73
2023-04-21T02:35:56.625Z,9.68
2023-04-21T02:38:23.496Z,11.13
2023-04-21T02:40:50.498Z,9.82
2023-04-21T02:43:17.665Z,10.05
2023-04-21T02:45:44.839Z,10.70
2023-04-21T02:48:13.402Z,9.85
2023-04-21T02:50:40.378Z,10.57
2023-04-21T02:53:07.577Z,9.70
2023-04-21T02:55:34.396Z,10.02
2023-04-21T02:58:01.387Z,10.85
2023-04-21T03:00:28.247Z,10.82
2023-04-21T03:02:55.266Z,10.52
2023-04-21T03:05:23.802Z,10.43
2023-04-21T03:07:50.774Z,10.25
2023-04-21T03:10:17.727Z,10.20
2023-04-21T03:12:44.855Z,8.68
2023-04-21T03:15:11.893Z,8.13
2023-04-21T03:17:38.903Z,7.68
2023-04-21T03:20:06.980Z,8.18
2023-04-21T03:22:35.476Z,7.90
2023-04-21T03:25:02.485Z,8.43
2023-04-21T03:27:29.277Z,7.93
2023-04-21T03:29:56.097Z,7.85
2023-04-21T03:32:23.314Z,7.35
2023-04-21T03:34:50.348Z,7.13
2023-04-21T03:37:17.234Z,7.10
2023-04-21T03:39:45.391Z,7.07
2023-04-21T03:42:12.522Z,7.53
2023-04-21T03:44:39.391Z,7.15
2023-04-21T03:47:06.183Z,7.28
2023-04-21T03:49:34.335Z,7.65
2023-04-21T03:52:01.089Z,7.55
2023-04-21T03:54:27.924Z,7.60
2023-04-21T03:56:56.200Z,6.55
2023-04-21T03:59:23.087Z,7.28
2023-04-21T04:01:50.007Z,7.50
2023-04-21T04:04:17.004Z,7.63
2023-04-21T04:06:44.169Z,7.80
2023-04-21T04:09:10.958Z,7.07
2023-04-21T04:11:37.819Z,6.97
2023-04-21T04:14:06.051Z,7.80
2023-04-21T04:16:34.218Z,7.53
2023-04-21T04:19:01.032Z,7.03
2023-04-21T04:21:27.905Z,7.20
2023-04-21T04:23:54.856Z,7.78
2023-04-21T04:26:21.652Z,7.78
2023-04-21T04:28:48.598Z,7.70
2023-04-21T04:31:16.904Z,9.45
2023-04-21T04:33:43.848Z,8.35
2023-04-21T04:36:10.997Z,8.57
2023-04-21T04:38:38.015Z,8.60
2023-04-21T04:41:05.309Z,8.45
2023-04-21T04:43:32.333Z,8.05
2023-04-21T04:45:59.237Z,8.25
2023-04-21T04:48:27.405Z,8.75
2023-04-21T04:50:54.442Z,8.07
2023-04-21T04:53:21.743Z,8.93
2023-04-21T04:55:48.612Z,8.10
2023-04-21T04:58:16.480Z,8.63
2023-04-21T05:00:43.324Z,8.93
2023-04-21T05:03:10.264Z,8.20
2023-04-21T05:05:38.558Z,8.40
2023-04-21T05:08:05.651Z,8.60
2023-04-21T05:10:32.887Z,9.15
2023-04-21T05:12:59.969Z,7.88
2023-04-21T05:15:26.811Z,7.75
2023-04-21T05:17:53.598Z,7.65
2023-04-21T05:20:20.452Z,7.82
2023-04-21T05:22:48.623Z,8.02
2023-04-21T05:25:15.462Z,7.90
2023-04-21T05:27:42.332Z,7.63
2023-04-21T05:30:09.970Z,8.32
2023-04-21T05:32:36.888Z,8.38
2023-04-21T05:35:04.015Z,8.88
2023-04-21T05:37:30.792Z,7.68
2023-04-21T05:39:59.120Z,8.05
2023-04-21T05:42:25.884Z,8.65
2023-04-21T05:44:53.146Z,8.40
2023-04-21T05:47:19.973Z,8.15
2023-04-21T05:49:46.803Z,7.75
2023-04-21T05:52:13.555Z,8.50
2023-04-21T05:54:40.358Z,7.93
2023-04-21T05:57:08.654Z,8.27
2023-04-21T05:59:35.435Z,8.90
2023-04-21T06:02:02.478Z,7.65
2023-04-21T06:04:29.808Z,8.60
2023-04-21T06:06:56.812Z,8.05
2023-04-21T06:09:23.581Z,8.15
2023-04-21T06:11:50.388Z,8.20
2023-04-21T06:14:18.787Z,8.15
2023-04-21T06:16:46.030Z,8.20
2023-04-21T06:19:12.876Z,9.10
2023-04-21T06:21:39.651Z,8.13
2023-04-21T06:24:07.101Z,7.32
2023-04-21T06:26:33.934Z,8.13
2023-04-21T06:29:00.694Z,9.00
2023-04-21T06:31:28.800Z,7.70
2023-04-21T06:33:55.639Z,8.05
2023-04-21T06:36:22.395Z,7.90
2023-04-21T06:38:49.387Z,8.07
2023-04-21T06:41:16.142Z,8.30
2023-04-21T06:43:42.923Z,7.75
2023-04-21T06:46:09.711Z,8.25
2023-04-21T06:48:37.835Z,8.68
2023-04-21T06:51:04.944Z,9.63
2023-04-21T06:53:32.281Z,10.25
2023-04-21T06:55:59.083Z,9.43
2023-04-21T06:58:26.206Z,9.00
2023-04-21T07:00:53.126Z,9.43
2023-04-21T07:03:20.181Z,10.00
2023-04-21T07:05:48.489Z,9.98
2023-04-21T07:08:15.238Z,10.60
2023-04-21T07:10:42.017Z,9.15
2023-04-21T07:13:10.106Z,9.68
2023-04-21T07:15:36.983Z,7.65
2023-04-21T07:18:03.924Z,8.18
2023-04-21T07:20:30.736Z,8.32
2023-04-21T07:22:58.913Z,7.88
2023-04-21T07:25:26.082Z,8.00
2023-04-21T07:27:52.859Z,7.65
2023-04-21T07:30:19.691Z,8.85
2023-04-21T07:32:46.600Z,7.45
2023-04-21T07:35:13.688Z,7.80
2023-04-21T07:37:40.461Z,6.47
2023-04-21T07:40:09.918Z,7.97
2023-04-21T07:42:36.706Z,7.05
2023-04-21T07:45:03.846Z,8.25
2023-04-21T07:47:30.788Z,7.95
2023-04-21T07:49:57.695Z,6.60
2023-04-21T07:52:24.491Z,7.20
2023-04-21T07:54:51.371Z,7.18
2023-04-21T07:57:19.432Z,6.68
2023-04-21T07:59:46.247Z,7.75
2023-04-21T08:02:13.102Z,7.65
2023-04-21T08:04:39.957Z,7.30
2023-04-21T08:07:06.959Z,6.88
2023-04-21T08:09:33.867Z,7.13
2023-04-21T08:12:00.661Z,6.90
2023-04-21T08:14:28.851Z,6.85
2023-04-21T08:16:57.199Z,6.82
2023-04-21T08:19:24.341Z,6.70
2023-04-21T08:21:51.163Z,7.15
2023-04-21T08:24:18.286Z,7.15
2023-04-21T08:26:45.787Z,6.75
2023-04-21T08:29:12.591Z,6.35
2023-04-21T08:31:40.826Z,6.30
2023-04-21T08:34:07.930Z,6.97
2023-04-21T08:36:34.933Z,6.47
2023-04-21T08:39:01.858Z,6.60
2023-04-21T08:41:28.708Z,10.55
2023-04-21T08:43:55.509Z,7.22
2023-04-21T08:46:23.323Z,6.50
2023-04-21T08:48:52.960Z,5.93
2023-04-21T08:51:22.686Z,5.80
2023-04-21T08:53:49.484Z,5.40
2023-04-21T08:56:16.260Z,6.13
2023-04-21T08:58:43.000Z,6.38
2023-04-21T09:01:09.878Z,6.00
2023-04-21T09:03:36.819Z,6.30
2023-04-21T09:06:07.806Z,5.38
2023-04-21T09:08:36.754Z,6.50
2023-04-21T09:11:03.692Z,6.38
2023-04-21T09:13:31.835Z,6.82
2023-04-21T09:15:59.267Z,6.63
2023-04-21T09:18:27.860Z,6.47
2023-04-21T09:21:07.848Z,6.75
2023-04-21T09:23:41.269Z,8.20
2023-04-21T09:26:09.578Z,7.35
2023-04-21T09:28:36.365Z,8.57
2023-04-21T09:31:03.238Z,7.05
2023-04-21T09:36:01.829Z,8.63
2023-04-21T09:38:30.149Z,7.85
2023-04-21T09:40:57.566Z,7.50
2023-04-21T09:43:24.545Z,7.50
2023-04-21T09:45:51.653Z,7.03
2023-04-21T09:48:22.397Z,6.82
2023-04-21T09:51:22.729Z,7.47
2023-04-21T09:53:40.224Z,7.45
2023-04-21T09:56:11.901Z,6.72
2023-04-21T09:58:43.584Z,5.80
2023-04-21T10:01:11.814Z,5.38
2023-04-21T10:03:39.755Z,4.95
2023-04-21T10:06:07.451Z,4.72
2023-04-21T10:08:35.302Z,5.25
2023-04-21T10:11:04.371Z,5.10
2023-04-21T10:13:31.477Z,4.35
2023-04-21T10:16:05.858Z,4.65
2023-04-21T10:18:35.822Z,5.88
2023-04-21T10:21:04.761Z,5.93
2023-04-21T10:23:36.279Z,6.70
2023-04-21T10:26:11.002Z,6.38
2023-04-21T10:28:42.133Z,5.95
2023-04-21T10:31:33.342Z,5.82
2023-04-21T10:34:22.820Z,7.35
2023-04-21T10:37:09.989Z,8.27
2023-04-21T10:39:37.720Z,9.35
2023-04-21T10:42:22.307Z,9.30
2023-04-21T10:44:54.203Z,9.48
2023-04-21T10:47:27.371Z,9.00
2023-04-21T10:49:56.846Z,10.48
2023-04-21T10:52:31.213Z,10.23
2023-04-21T10:55:16.111Z,10.32
2023-04-21T10:57:45.498Z,10.05
2023-04-21T11:00:17.001Z,9.73
2023-04-21T11:02:45.253Z,8.73
2023-04-21T11:05:12.939Z,10.48
2023-04-21T11:07:39.970Z,9.35
2023-04-21T11:10:08.731Z,9.25
2023-04-21T11:12:38.221Z,8.82
2023-04-21T11:15:08.451Z,9.35
2023-04-21T11:17:36.084Z,8.27
2023-04-21T11:20:04.040Z,6.90
2023-04-21T11:22:30.835Z,8.60
2023-04-21T11:25:01.293Z,8.88
2023-04-21T11:27:29.402Z,9.90
2023-04-21T11:29:56.955Z,8.82
2023-04-21T11:32:25.191Z,7.85
2023-04-21T11:34:52.112Z,7.15
2023-04-21T11:37:24.908Z,8.10
2023-04-21T11:39:57.404Z,8.98
2023-04-21T11:42:24.331Z,8.10
2023-04-21T11:44:53.647Z,7.90
2023-04-21T11:47:22.723Z,6.78
2023-04-21T11:49:52.570Z,7.15
2023-04-21T11:52:23.966Z,7.07
2023-04-21T11:54:55.846Z,6.80
2023-04-21T11:57:23.766Z,6.20
2023-04-21T11:59:50.676Z,6.32
2023-04-21T12:02:23.081Z,6.68
2023-04-21T12:05:07.200Z,6.28
2023-04-21T12:10:02.420Z,4.47
2023-04-21T12:12:30.055Z,3.60
2023-04-21T12:14:56.940Z,3.63
2023-04-21T12:17:23.718Z,3.58
2023-04-21T12:19:50.537Z,3.20
2023-04-21T12:22:18.990Z,3.15
2023-04-21T12:24:46.365Z,2.42
2023-04-21T12:27:13.694Z,2.85
2023-04-21T12:29:40.816Z,4.10
2023-04-21T12:32:08.762Z,3.95
2023-04-21T12:34:36.063Z,4.40
2023-04-21T12:37:03.519Z,3.70
2023-04-21T12:39:32.271Z,4.32
2023-04-21T12:41:59.574Z,3.75
2023-04-21T12:44:26.513Z,3.75
2023-04-21T12:46:53.461Z,3.20
2023-04-21T12:49:20.521Z,2.65
2023-04-21T12:51:48.794Z,2.80
2023-04-21T12:54:15.606Z,2.33
2023-04-21T12:56:44.120Z,2.33
2023-04-21T12:59:11.523Z,2.15
2023-04-21T13:01:40.053Z,2.00
2023-04-21T13:04:08.121Z,1.92
2023-04-21T13:06:35.336Z,1.55
2023-04-21T13:09:02.188Z,2.05
2023-04-21T13:11:28.986Z,1.90
2023-04-21T13:13:57.762Z,1.75
2023-04-21T13:16:24.660Z,1.77
2023-04-21T13:18:51.487Z,1.85
2023-04-21T13:21:18.243Z,1.92
2023-04-21T13:23:45.235Z,2.17
2023-04-21T13:26:12.284Z,1.60
2023-04-21T13:28:39.104Z,2.58
2023-04-21T13:31:07.451Z,1.80
2023-04-21T13:33:34.481Z,2.10
2023-04-21T13:36:02.122Z,2.10
2023-04-21T13:38:29.025Z,1.85
2023-04-21T13:40:55.952Z,1.92
2023-04-21T13:43:23.115Z,1.83
2023-04-21T13:45:50.506Z,1.90
2023-04-21T13:48:19.286Z,2.40
2023-04-21T13:50:46.477Z,2.00
2023-04-21T13:53:13.370Z,1.65
2023-04-21T13:55:40.238Z,1.70
2023-04-21T13:58:07.048Z,1.70
2023-04-21T14:00:34.038Z,1.70
2023-04-21T14:03:01.077Z,1.40
2023-04-21T14:05:29.920Z,1.63
2023-04-21T14:07:56.909Z,1.42
2023-04-21T14:10:24.191Z,1.35
2023-04-21T14:12:50.981Z,1.40
2023-04-21T14:15:18.019Z,1.65
2023-04-21T14:17:44.882Z,1.58
2023-04-21T14:20:12.046Z,1.60
2023-04-21T14:22:40.182Z,1.63
2023-04-21T14:25:07.471Z,1.40
2023-04-21T14:27:34.472Z,1.65
2023-04-21T14:30:01.472Z,1.65
2023-04-21T14:32:28.506Z,1.50
2023-04-21T14:34:55.444Z,2.00
2023-04-21T14:37:22.560Z,1.45
2023-04-21T14:39:50.803Z,1.55
2023-04-21T14:42:17.661Z,1.00
2023-04-21T14:44:44.630Z,1.20
2023-04-21T14:47:11.739Z,1.33
2023-04-21T14:49:38.960Z,1.20
2023-04-21T14:52:05.904Z,1.58
2023-04-21T14:54:32.802Z,1.30
2023-04-21T14:57:17.486Z,1.30
2023-04-21T14:59:46.302Z,1.30
2023-04-21T15:02:13.557Z,1.33
2023-04-21T15:04:40.872Z,1.30
2023-04-21T15:07:07.735Z,1.35
2023-04-21T15:09:34.833Z,1.50
2023-04-21T15:12:03.431Z,1.60
2023-04-21T15:14:30.343Z,1.15
2023-04-21T15:16:57.314Z,1.30
2023-04-21T15:19:25.686Z,1.10
2023-04-21T15:21:58.781Z,1.15
2023-04-21T15:24:25.680Z,1.30
2023-04-21T15:26:52.637Z,1.60
2023-04-21T15:29:20.774Z,1.33
2023-04-21T15:31:47.585Z,1.30
2023-04-21T15:34:14.364Z,1.05
2023-04-21T15:36:41.167Z,1.00
2023-04-21T15:39:08.014Z,1.40
2023-04-21T15:41:34.860Z,1.45
2023-04-21T15:44:01.666Z,1.33
2023-04-21T15:46:29.913Z,1.80
2023-04-21T15:48:57.121Z,1.70
2023-04-21T15:51:24.061Z,1.63
2023-04-21T15:53:51.025Z,1.20
2023-04-21T15:56:18.033Z,1.23
2023-04-21T15:58:45.058Z,1.55
2023-04-21T16:01:12.073Z,1.60
2023-04-21T16:03:40.498Z,1.42
2023-04-21T16:06:08.021Z,1.50
2023-04-21T16:08:34.849Z,1.45
2023-04-21T16:11:01.709Z,1.45
2023-04-21T16:13:29.001Z,1.48
2023-04-21T16:15:55.799Z,1.45
2023-04-21T16:18:22.743Z,1.48
2023-04-21T16:20:51.316Z,1.17
2023-04-21T16:23:18.838Z,1.20
2023-04-21T16:25:45.802Z,1.52
2023-04-21T16:28:12.749Z,1.27
2023-04-21T16:30:39.612Z,1.27
2023-04-21T16:33:06.425Z,1.17
2023-04-21T16:35:33.715Z,1.73
2023-04-21T16:38:02.298Z,1.70
2023-04-21T16:40:29.310Z,1.30
2023-04-21T16:42:56.181Z,1.42
2023-04-21T16:45:23.123Z,1.50
2023-04-21T16:47:50.083Z,1.38
2023-04-21T16:50:17.022Z,1.50
2023-04-21T16:58:13.580Z,1.60
2023-04-21T17:00:40.365Z,1.50
2023-04-21T17:03:07.847Z,1.20
2023-04-21T17:05:34.836Z,1.50
2023-04-21T17:08:01.696Z,1.33
2023-04-21T17:10:28.530Z,1.27
2023-04-21T17:12:55.308Z,1.33
2023-04-21T17:15:23.542Z,2.00
2023-04-21T17:17:50.466Z,1.70
2023-04-21T17:20:17.280Z,1.70
2023-04-21T17:22:44.089Z,2.03
2023-04-21T17:25:11.301Z,2.05
2023-04-21T17:27:38.624Z,2.00
2023-04-21T17:30:06.638Z,2.25
2023-04-21T17:32:34.925Z,1.80
2023-04-21T17:35:01.811Z,1.50
2023-04-21T17:37:28.728Z,1.60
2023-04-21T17:39:55.723Z,1.70
2023-04-21T17:42:22.491Z,1.88
2023-04-21T17:44:49.387Z,1.60
2023-04-21T17:47:16.185Z,1.63
2023-04-21T17:49:44.330Z,1.80
2023-04-21T17:52:11.147Z,2.13
2023-04-21T17:54:38.080Z,2.22
2023-04-21T17:57:05.119Z,1.98
2023-04-21T17:59:31.960Z,2.20
2023-04-21T18:01:58.943Z,2.35
2023-04-21T18:04:26.150Z,2.10
2023-04-21T18:06:54.383Z,1.90
2023-04-21T18:09:21.164Z,2.05
2023-04-21T18:11:47.929Z,2.20
2023-04-21T18:14:15.083Z,2.30
2023-04-21T18:16:41.840Z,2.28
2023-04-21T18:19:08.720Z,2.40
2023-04-21T18:21:35.552Z,2.42
2023-04-21T18:24:03.999Z,2.60
2023-04-21T18:26:30.760Z,2.45
2023-04-21T18:28:57.486Z,2.83
2023-04-21T18:31:24.401Z,3.47
2023-04-21T18:33:51.321Z,2.85
2023-04-21T18:36:18.131Z,2.60
2023-04-21T18:38:44.865Z,2.95
2023-04-21T18:41:13.084Z,2.90
2023-04-21T18:43:40.096Z,3.20
2023-04-21T18:46:06.867Z,2.63
2023-04-21T18:48:33.609Z,2.90
2023-04-21T18:51:00.393Z,3.30
2023-04-21T18:53:27.212Z,2.70
2023-04-21T18:55:54.054Z,2.90
2023-04-21T18:58:22.364Z,4.05
2023-04-21T19:00:49.207Z,2.85
2023-04-21T19:03:16.126Z,3.25
2023-04-21T19:05:43.096Z,2.80
2023-04-21T19:08:09.922Z,2.80
2023-04-21T19:10:36.913Z,3.10
2023-04-21T19:13:03.917Z,2.88
2023-04-21T19:15:32.373Z,3.13
2023-04-21T19:17:59.168Z,4.13
2023-04-21T19:20:26.239Z,3.60
2023-04-21T19:22:52.965Z,3.80
2023-04-21T19:25:19.883Z,2.80
2023-04-21T19:27:47.604Z,3.97
2023-04-21T19:30:14.555Z,4.03
2023-04-21T19:32:42.755Z,4.13
2023-04-21T19:35:10.197Z,2.30
2023-04-21T19:37:37.118Z,1.50
2023-04-21T19:40:04.712Z,1.73
2023-04-21T19:42:31.615Z,1.60
2023-04-21T19:44:58.400Z,1.25
2023-04-21T19:47:25.407Z,0.95
2023-04-21T19:49:53.557Z,1.00
2023-04-21T19:52:20.416Z,0.70
2023-04-21T19:54:47.165Z,0.65
2023-04-21T19:57:13.920Z,0.60
2023-04-21T19:59:40.812Z,0.90
2023-04-21T20:02:08.120Z,0.60
2023-04-21T20:04:35.193Z,0.80
2023-04-21T20:07:03.486Z,0.50
2023-04-21T20:09:30.242Z,0.50
2023-04-21T20:11:56.942Z,0.50
2023-04-21T20:14:23.667Z,0.50
2023-04-21T20:16:50.454Z,0.40
2023-04-21T20:19:20.041Z,0.50
2023-04-21T20:21:46.766Z,0.60
2023-04-21T20:24:14.880Z,0.90
2023-04-21T20:26:41.682Z,0.73
2023-04-21T20:29:08.662Z,0.60
2023-04-21T20:31:35.511Z,0.70
2023-04-21T20:34:02.298Z,0.63
2023-04-21T20:36:29.128Z,0.80
2023-04-21T20:38:56.399Z,0.90
2023-04-21T20:41:24.530Z,0.90
2023-04-21T20:43:51.303Z,0.75
2023-04-21T20:46:18.314Z,0.98
2023-04-21T20:48:45.132Z,0.80
2023-04-21T20:51:11.898Z,0.85
2023-04-21T20:53:38.652Z,0.93
2023-04-21T20:56:05.619Z,0.98
2023-04-21T20:58:33.750Z,1.23
2023-04-21T21:01:00.542Z,1.10
2023-04-21T21:03:27.656Z,0.77
2023-04-21T21:05:54.576Z,0.90
2023-04-21T21:08:21.422Z,1.08
2023-04-21T21:10:48.246Z,1.10
2023-04-21T21:13:15.001Z,0.70
2023-04-21T21:15:43.132Z,0.82
2023-04-21T21:18:09.934Z,1.00
2023-04-21T21:20:36.798Z,1.05
2023-04-21T21:23:03.596Z,1.38
2023-04-21T21:25:30.477Z,1.00
2023-04-21T21:27:57.299Z,1.13
2023-04-21T21:30:24.037Z,1.75
2023-04-21T21:32:52.265Z,1.70
2023-04-21T21:35:19.117Z,1.50
2023-04-21T21:37:45.889Z,1.52
2023-04-21T21:40:13.052Z,1.75
2023-04-21T21:42:40.118Z,1.85
2023-04-21T21:45:07.897Z,1.63
2023-04-21T21:47:36.481Z,1.45
2023-04-21T21:50:08.176Z,1.90
2023-04-21T21:52:34.924Z,1.58
2023-04-21T21:55:01.658Z,1.65
2023-04-21T21:57:28.504Z,1.35
2023-04-21T21:59:55.419Z,1.30
2023-04-21T22:02:22.225Z,1.67
2023-04-21T22:04:49.186Z,1.58
2023-04-21T22:07:17.493Z,1.30
2023-04-21T22:09:44.231Z,1.60
2023-04-21T22:12:11.082Z,1.88
2023-04-21T22:14:37.966Z,2.03
2023-04-21T22:17:04.805Z,4.30
2023-04-21T22:19:31.564Z,1.90
2023-04-21T22:21:58.337Z,1.70
2023-04-21T22:24:26.487Z,1.60
2023-04-21T22:26:53.290Z,1.70
2023-04-21T22:29:20.064Z,1.85
2023-04-21T22:31:47.474Z,1.83
2023-04-21T22:34:14.463Z,1.98
2023-04-21T22:36:41.191Z,1.17
2023-04-21T22:39:07.962Z,1.33
2023-04-21T22:41:36.167Z,1.30
2023-04-21T22:44:03.047Z,1.33
2023-04-21T22:46:29.923Z,1.10
2023-04-21T22:48:56.735Z,1.13
2023-04-21T22:51:23.482Z,0.90
2023-04-21T22:53:50.532Z,1.00
2023-04-21T22:56:17.515Z,1.02
2023-04-21T22:58:46.094Z,1.00
2023-04-21T23:01:13.244Z,0.90
2023-04-21T23:03:40.679Z,0.75
2023-04-21T23:06:07.985Z,0.93
2023-04-21T23:08:34.852Z,0.95
2023-04-21T23:11:02.455Z,1.00
2023-04-21T23:13:30.089Z,0.85
2023-04-21T23:15:58.726Z,1.00
2023-04-21T23:18:25.879Z,0.80
2023-04-21T23:20:52.993Z,0.70
2023-04-21T23:23:19.846Z,0.80
2023-04-21T23:25:46.727Z,0.60
2023-04-21T23:28:13.783Z,0.90
2023-04-21T23:30:40.739Z,0.68
2023-04-21T23:33:09.003Z,0.70
2023-04-21T23:35:35.950Z,0.60
2023-04-21T23:38:03.309Z,0.70
2023-04-21T23:40:30.237Z,0.57
2023-04-21T23:42:57.194Z,0.80
2023-04-21T23:45:24.432Z,0.70
2023-04-21T23:47:51.473Z,0.70
2023-04-21T23:50:20.033Z,0.50
2023-04-21T23:52:46.962Z,0.60
2023-04-21T23:55:14.096Z,0.88
2023-04-21T23:57:41.090Z,1.10
